sensor_id;sensor_type;location;lat;lon;timestamp;P1;durP1;ratioP1;P2;durP2;ratioP2
9496;SDS011;4786;51.270;4.456;2023-10-09T00:01:39;10.47;;;7.13;;
9496;SDS011;4786;51.270;4.456;2023-10-09T00:04:09;7.20;;;6.50;;
9496;SDS011;4786;51.270;4.456;2023-10-09T00:06:36;12.17;;;8.03;;
9496;SDS011;4786;51.270;4.456;2023-10-09T00:09:03;10.17;;;7.47;;
9496;SDS011;4786;51.270;4.456;2023-10-09T00:11:50;9.30;;;7.93;;
9496;SDS011;4786;51.270;4.456;2023-10-09T00:14:26;8.87;;;7.70;;
9496;SDS011;4786;51.270;4.456;2023-10-09T00:17:03;9.80;;;8.40;;
9496;SDS011;4786;51.270;4.456;2023-10-09T00:19:35;8.63;;;7.20;;
9496;SDS011;4786;51.270;4.456;2023-10-09T00:22:02;9.47;;;8.17;;
9496;SDS011;4786;51.270;4.456;2023-10-09T00:24:45;9.93;;;8.70;;
9496;SDS011;4786;51.270;4.456;2023-10-09T00:27:14;9.53;;;7.93;;
9496;SDS011;4786;51.270;4.456;2023-10-09T00:29:44;9.83;;;7.80;;
9496;SDS011;4786;51.270;4.456;2023-10-09T00:32:11;9.50;;;8.43;;
9496;SDS011;4786;51.270;4.456;2023-10-09T00:34:47;8.87;;;7.77;;
9496;SDS011;4786;51.270;4.456;2023-10-09T00:37:15;9.43;;;8.13;;
9496;SDS011;4786;51.270;4.456;2023-10-09T00:39:42;11.87;;;9.07;;
9496;SDS011;4786;51.270;4.456;2023-10-09T00:42:09;10.70;;;8.80;;
9496;SDS011;4786;51.270;4.456;2023-10-09T00:44:37;11.27;;;8.37;;
9496;SDS011;4786;51.270;4.456;2023-10-09T00:47:13;12.30;;;8.37;;
9496;SDS011;4786;51.270;4.456;2023-10-09T00:49:51;11.63;;;8.90;;
9496;SDS011;4786;51.270;4.456;2023-10-09T00:52:28;10.63;;;8.90;;
9496;SDS011;4786;51.270;4.456;2023-10-09T00:55:18;15.40;;;9.20;;
9496;SDS011;4786;51.270;4.456;2023-10-09T00:58:11;10.17;;;8.20;;
9496;SDS011;4786;51.270;4.456;2023-10-09T01:00:39;9.83;;;8.60;;
9496;SDS011;4786;51.270;4.456;2023-10-09T01:03:12;11.90;;;9.70;;
9496;SDS011;4786;51.270;4.456;2023-10-09T01:05:53;10.20;;;9.10;;
9496;SDS011;4786;51.270;4.456;2023-10-09T01:08:38;11.73;;;9.40;;
9496;SDS011;4786;51.270;4.456;2023-10-09T01:11:05;12.20;;;9.20;;
9496;SDS011;4786;51.270;4.456;2023-10-09T01:13:44;13.53;;;10.07;;
9496;SDS011;4786;51.270;4.456;2023-10-09T01:16:13;13.30;;;9.47;;
9496;SDS011;4786;51.270;4.456;2023-10-09T01:18:47;11.10;;;9.23;;
9496;SDS011;4786;51.270;4.456;2023-10-09T01:21:22;10.33;;;9.23;;
9496;SDS011;4786;51.270;4.456;2023-10-09T01:23:50;11.30;;;9.57;;
9496;SDS011;4786;51.270;4.456;2023-10-09T01:26:32;13.97;;;10.20;;
9496;SDS011;4786;51.270;4.456;2023-10-09T01:29:08;14.00;;;10.33;;
9496;SDS011;4786;51.270;4.456;2023-10-09T01:31:40;11.70;;;9.77;;
9496;SDS011;4786;51.270;4.456;2023-10-09T01:34:26;11.93;;;10.27;;
9496;SDS011;4786;51.270;4.456;2023-10-09T01:37:08;13.50;;;11.10;;
9496;SDS011;4786;51.270;4.456;2023-10-09T01:39:43;11.77;;;10.10;;
9496;SDS011;4786;51.270;4.456;2023-10-09T01:42:10;13.53;;;10.13;;
9496;SDS011;4786;51.270;4.456;2023-10-09T01:44:48;11.40;;;10.20;;
9496;SDS011;4786;51.270;4.456;2023-10-09T01:47:14;13.50;;;10.60;;
9496;SDS011;4786;51.270;4.456;2023-10-09T01:49:43;13.67;;;11.00;;
9496;SDS011;4786;51.270;4.456;2023-10-09T01:52:12;14.40;;;10.13;;
9496;SDS011;4786;51.270;4.456;2023-10-09T01:54:41;12.17;;;9.73;;
9496;SDS011;4786;51.270;4.456;2023-10-09T01:57:13;11.50;;;9.43;;
9496;SDS011;4786;51.270;4.456;2023-10-09T01:59:42;13.77;;;9.90;;
9496;SDS011;4786;51.270;4.456;2023-10-09T02:02:09;11.43;;;10.03;;
9496;SDS011;4786;51.270;4.456;2023-10-09T02:04:59;12.37;;;9.00;;
9496;SDS011;4786;51.270;4.456;2023-10-09T02:07:35;13.23;;;9.83;;
9496;SDS011;4786;51.270;4.456;2023-10-09T02:10:17;11.37;;;9.33;;
9496;SDS011;4786;51.270;4.456;2023-10-09T02:12:50;12.93;;;9.57;;
9496;SDS011;4786;51.270;4.456;2023-10-09T02:15:25;11.73;;;10.07;;
9496;SDS011;4786;51.270;4.456;2023-10-09T02:18:10;13.10;;;9.73;;
9496;SDS011;4786;51.270;4.456;2023-10-09T02:20:47;11.27;;;9.37;;
9496;SDS011;4786;51.270;4.456;2023-10-09T02:23:28;10.17;;;8.87;;
9496;SDS011;4786;51.270;4.456;2023-10-09T02:26:06;10.53;;;9.13;;
9496;SDS011;4786;51.270;4.456;2023-10-09T02:28:34;12.03;;;8.83;;
9496;SDS011;4786;51.270;4.456;2023-10-09T02:31:01;11.90;;;9.10;;
9496;SDS011;4786;51.270;4.456;2023-10-09T02:33:35;12.23;;;9.60;;
9496;SDS011;4786;51.270;4.456;2023-10-09T02:36:04;11.20;;;9.40;;
9496;SDS011;4786;51.270;4.456;2023-10-09T02:38:34;9.93;;;8.47;;
9496;SDS011;4786;51.270;4.456;2023-10-09T02:41:05;13.53;;;10.20;;
9496;SDS011;4786;51.270;4.456;2023-10-09T02:43:32;13.80;;;10.23;;
9496;SDS011;4786;51.270;4.456;2023-10-09T02:46:12;12.73;;;10.13;;
9496;SDS011;4786;51.270;4.456;2023-10-09T02:48:48;14.20;;;10.70;;
9496;SDS011;4786;51.270;4.456;2023-10-09T02:51:21;12.70;;;10.40;;
9496;SDS011;4786;51.270;4.456;2023-10-09T02:53:50;12.53;;;10.63;;
9496;SDS011;4786;51.270;4.456;2023-10-09T02:56:24;13.83;;;10.23;;
9496;SDS011;4786;51.270;4.456;2023-10-09T02:59:01;12.97;;;10.70;;
9496;SDS011;4786;51.270;4.456;2023-10-09T03:01:31;15.63;;;10.20;;
9496;SDS011;4786;51.270;4.456;2023-10-09T03:03:59;12.17;;;10.20;;
9496;SDS011;4786;51.270;4.456;2023-10-09T03:06:27;12.87;;;10.03;;
9496;SDS011;4786;51.270;4.456;2023-10-09T03:08:58;14.00;;;11.03;;
9496;SDS011;4786;51.270;4.456;2023-10-09T03:11:25;12.97;;;10.17;;
9496;SDS011;4786;51.270;4.456;2023-10-09T03:13:52;16.20;;;11.00;;
9496;SDS011;4786;51.270;4.456;2023-10-09T03:16:18;12.67;;;10.90;;
9496;SDS011;4786;51.270;4.456;2023-10-09T03:18:47;16.93;;;12.10;;
9496;SDS011;4786;51.270;4.456;2023-10-09T03:21:15;13.80;;;11.20;;
9496;SDS011;4786;51.270;4.456;2023-10-09T03:23:42;17.87;;;12.97;;
9496;SDS011;4786;51.270;4.456;2023-10-09T03:26:09;15.33;;;11.97;;
9496;SDS011;4786;51.270;4.456;2023-10-09T03:28:35;14.87;;;11.47;;
9496;SDS011;4786;51.270;4.456;2023-10-09T03:31:01;14.40;;;11.73;;
9496;SDS011;4786;51.270;4.456;2023-10-09T03:33:28;13.70;;;11.73;;
9496;SDS011;4786;51.270;4.456;2023-10-09T03:35:58;12.60;;;10.93;;
9496;SDS011;4786;51.270;4.456;2023-10-09T03:38:25;16.07;;;12.03;;
9496;SDS011;4786;51.270;4.456;2023-10-09T03:40:54;15.97;;;11.47;;
9496;SDS011;4786;51.270;4.456;2023-10-09T03:43:20;18.07;;;12.50;;
9496;SDS011;4786;51.270;4.456;2023-10-09T03:45:46;12.50;;;11.20;;
9496;SDS011;4786;51.270;4.456;2023-10-09T03:48:19;16.33;;;12.67;;
9496;SDS011;4786;51.270;4.456;2023-10-09T03:50:51;12.67;;;11.37;;
9496;SDS011;4786;51.270;4.456;2023-10-09T03:53:38;15.00;;;12.37;;
9496;SDS011;4786;51.270;4.456;2023-10-09T03:56:08;14.43;;;11.53;;
9496;SDS011;4786;51.270;4.456;2023-10-09T03:58:40;16.67;;;12.90;;
9496;SDS011;4786;51.270;4.456;2023-10-09T04:01:13;19.27;;;13.90;;
9496;SDS011;4786;51.270;4.456;2023-10-09T04:04:04;15.30;;;13.30;;
9496;SDS011;4786;51.270;4.456;2023-10-09T04:06:32;20.20;;;13.93;;
9496;SDS011;4786;51.270;4.456;2023-10-09T04:09:03;16.70;;;13.80;;
9496;SDS011;4786;51.270;4.456;2023-10-09T04:11:59;18.73;;;16.37;;
9496;SDS011;4786;51.270;4.456;2023-10-09T04:14:36;17.53;;;14.43;;
9496;SDS011;4786;51.270;4.456;2023-10-09T04:17:12;17.87;;;14.13;;
9496;SDS011;4786;51.270;4.456;2023-10-09T04:19:47;15.27;;;13.60;;
9496;SDS011;4786;51.270;4.456;2023-10-09T04:22:31;16.70;;;14.03;;
9496;SDS011;4786;51.270;4.456;2023-10-09T04:25:04;15.47;;;13.47;;
9496;SDS011;4786;51.270;4.456;2023-10-09T04:27:32;15.27;;;13.67;;
9496;SDS011;4786;51.270;4.456;2023-10-09T04:30:01;19.67;;;15.87;;
9496;SDS011;4786;51.270;4.456;2023-10-09T04:32:28;17.63;;;14.37;;
9496;SDS011;4786;51.270;4.456;2023-10-09T04:34:54;20.33;;;15.93;;
9496;SDS011;4786;51.270;4.456;2023-10-09T04:37:44;18.77;;;14.00;;
9496;SDS011;4786;51.270;4.456;2023-10-09T04:40:17;16.63;;;13.60;;
9496;SDS011;4786;51.270;4.456;2023-10-09T04:43:02;16.17;;;14.37;;
9496;SDS011;4786;51.270;4.456;2023-10-09T04:45:35;15.97;;;13.13;;
9496;SDS011;4786;51.270;4.456;2023-10-09T04:48:22;17.20;;;14.77;;
9496;SDS011;4786;51.270;4.456;2023-10-09T04:51:11;15.87;;;14.07;;
9496;SDS011;4786;51.270;4.456;2023-10-09T04:53:47;19.37;;;13.93;;
9496;SDS011;4786;51.270;4.456;2023-10-09T04:56:20;17.90;;;13.80;;
9496;SDS011;4786;51.270;4.456;2023-10-09T04:58:49;18.93;;;14.07;;
9496;SDS011;4786;51.270;4.456;2023-10-09T05:01:28;17.50;;;13.57;;
9496;SDS011;4786;51.270;4.456;2023-10-09T05:04:16;16.50;;;13.50;;
9496;SDS011;4786;51.270;4.456;2023-10-09T05:07:01;16.73;;;13.60;;
9496;SDS011;4786;51.270;4.456;2023-10-09T05:09:46;14.67;;;13.13;;
9496;SDS011;4786;51.270;4.456;2023-10-09T05:12:22;16.43;;;13.70;;
9496;SDS011;4786;51.270;4.456;2023-10-09T05:14:52;16.90;;;13.47;;
9496;SDS011;4786;51.270;4.456;2023-10-09T05:17:34;16.90;;;14.53;;
9496;SDS011;4786;51.270;4.456;2023-10-09T05:20:01;17.17;;;14.10;;
9496;SDS011;4786;51.270;4.456;2023-10-09T05:22:46;16.50;;;14.00;;
9496;SDS011;4786;51.270;4.456;2023-10-09T05:25:32;24.80;;;18.03;;
9496;SDS011;4786;51.270;4.456;2023-10-09T05:28:24;18.00;;;16.07;;
9496;SDS011;4786;51.270;4.456;2023-10-09T05:30:50;19.33;;;15.03;;
9496;SDS011;4786;51.270;4.456;2023-10-09T05:33:28;15.93;;;14.17;;
9496;SDS011;4786;51.270;4.456;2023-10-09T05:35:54;19.67;;;16.10;;
9496;SDS011;4786;51.270;4.456;2023-10-09T05:38:38;19.30;;;16.00;;
9496;SDS011;4786;51.270;4.456;2023-10-09T05:41:11;22.23;;;18.00;;
9496;SDS011;4786;51.270;4.456;2023-10-09T05:43:56;27.67;;;20.57;;
9496;SDS011;4786;51.270;4.456;2023-10-09T05:46:41;23.97;;;20.27;;
9496;SDS011;4786;51.270;4.456;2023-10-09T05:49:33;27.37;;;21.23;;
9496;SDS011;4786;51.270;4.456;2023-10-09T05:52:11;23.10;;;18.67;;
9496;SDS011;4786;51.270;4.456;2023-10-09T05:55:13;25.73;;;20.10;;
9496;SDS011;4786;51.270;4.456;2023-10-09T05:58:04;22.00;;;19.07;;
9496;SDS011;4786;51.270;4.456;2023-10-09T06:00:49;23.07;;;19.07;;
9496;SDS011;4786;51.270;4.456;2023-10-09T06:03:34;23.07;;;18.47;;
9496;SDS011;4786;51.270;4.456;2023-10-09T06:06:19;22.57;;;18.57;;
9496;SDS011;4786;51.270;4.456;2023-10-09T06:09:02;27.53;;;18.97;;
9496;SDS011;4786;51.270;4.456;2023-10-09T06:11:49;25.87;;;21.30;;
9496;SDS011;4786;51.270;4.456;2023-10-09T06:14:20;24.60;;;20.90;;
9496;SDS011;4786;51.270;4.456;2023-10-09T06:16:56;23.70;;;21.10;;
9496;SDS011;4786;51.270;4.456;2023-10-09T06:19:23;24.93;;;21.10;;
9496;SDS011;4786;51.270;4.456;2023-10-09T06:21:53;25.33;;;19.67;;
9496;SDS011;4786;51.270;4.456;2023-10-09T06:24:29;24.20;;;19.67;;
9496;SDS011;4786;51.270;4.456;2023-10-09T06:27:06;22.30;;;19.13;;
9496;SDS011;4786;51.270;4.456;2023-10-09T06:29:32;23.50;;;19.13;;
9496;SDS011;4786;51.270;4.456;2023-10-09T06:32:16;26.00;;;19.83;;
9496;SDS011;4786;51.270;4.456;2023-10-09T06:34:50;22.10;;;19.43;;
9496;SDS011;4786;51.270;4.456;2023-10-09T06:37:40;21.93;;;17.80;;
9496;SDS011;4786;51.270;4.456;2023-10-09T06:40:26;22.57;;;18.50;;
9496;SDS011;4786;51.270;4.456;2023-10-09T06:43:02;22.13;;;18.97;;
9496;SDS011;4786;51.270;4.456;2023-10-09T06:45:46;25.70;;;20.47;;
9496;SDS011;4786;51.270;4.456;2023-10-09T06:48:43;37.23;;;23.57;;
9496;SDS011;4786;51.270;4.456;2023-10-09T06:51:12;28.20;;;22.43;;
9496;SDS011;4786;51.270;4.456;2023-10-09T06:53:59;29.70;;;24.97;;
9496;SDS011;4786;51.270;4.456;2023-10-09T06:56:31;30.40;;;24.17;;
9496;SDS011;4786;51.270;4.456;2023-10-09T06:58:57;35.47;;;25.43;;
9496;SDS011;4786;51.270;4.456;2023-10-09T07:01:50;30.20;;;22.77;;
9496;SDS011;4786;51.270;4.456;2023-10-09T07:04:35;26.37;;;21.50;;
9496;SDS011;4786;51.270;4.456;2023-10-09T07:07:01;25.10;;;21.33;;
9496;SDS011;4786;51.270;4.456;2023-10-09T07:09:27;28.53;;;25.53;;
9496;SDS011;4786;51.270;4.456;2023-10-09T07:12:09;32.47;;;24.53;;
9496;SDS011;4786;51.270;4.456;2023-10-09T07:14:39;33.63;;;26.50;;
9496;SDS011;4786;51.270;4.456;2023-10-09T07:17:05;28.30;;;24.77;;
9496;SDS011;4786;51.270;4.456;2023-10-09T07:19:53;30.83;;;23.87;;
9496;SDS011;4786;51.270;4.456;2023-10-09T07:22:19;26.03;;;21.90;;
9496;SDS011;4786;51.270;4.456;2023-10-09T07:24:45;33.00;;;25.33;;
9496;SDS011;4786;51.270;4.456;2023-10-09T07:27:30;33.43;;;26.47;;
9496;SDS011;4786;51.270;4.456;2023-10-09T07:30:20;25.87;;;23.10;;
9496;SDS011;4786;51.270;4.456;2023-10-09T07:33:05;26.60;;;22.47;;
9496;SDS011;4786;51.270;4.456;2023-10-09T07:35:42;26.83;;;21.80;;
9496;SDS011;4786;51.270;4.456;2023-10-09T07:38:18;26.90;;;24.00;;
9496;SDS011;4786;51.270;4.456;2023-10-09T07:40:47;30.47;;;25.30;;
9496;SDS011;4786;51.270;4.456;2023-10-09T07:46:05;29.37;;;24.43;;
9496;SDS011;4786;51.270;4.456;2023-10-09T07:48:50;30.33;;;25.27;;
9496;SDS011;4786;51.270;4.456;2023-10-09T07:51:20;34.60;;;26.70;;
9496;SDS011;4786;51.270;4.456;2023-10-09T07:53:56;28.07;;;24.03;;
9496;SDS011;4786;51.270;4.456;2023-10-09T07:56:26;29.43;;;22.90;;
9496;SDS011;4786;51.270;4.456;2023-10-09T07:58:55;27.67;;;23.67;;
9496;SDS011;4786;51.270;4.456;2023-10-09T08:01:25;26.87;;;22.53;;
9496;SDS011;4786;51.270;4.456;2023-10-09T08:03:51;27.80;;;21.60;;
9496;SDS011;4786;51.270;4.456;2023-10-09T08:06:27;24.80;;;20.13;;
9496;SDS011;4786;51.270;4.456;2023-10-09T08:09:08;26.27;;;21.40;;
9496;SDS011;4786;51.270;4.456;2023-10-09T08:11:40;22.85;;;19.98;;
9496;SDS011;4786;51.270;4.456;2023-10-09T08:14:39;26.90;;;21.93;;
9496;SDS011;4786;51.270;4.456;2023-10-09T08:17:13;32.47;;;24.63;;
9496;SDS011;4786;51.270;4.456;2023-10-09T08:19:48;28.75;;;22.80;;
9496;SDS011;4786;51.270;4.456;2023-10-09T08:22:30;28.95;;;21.80;;
9496;SDS011;4786;51.270;4.456;2023-10-09T08:24:56;30.55;;;23.02;;
9496;SDS011;4786;51.270;4.456;2023-10-09T08:27:26;28.00;;;24.13;;
9496;SDS011;4786;51.270;4.456;2023-10-09T08:29:55;29.00;;;23.57;;
9496;SDS011;4786;51.270;4.456;2023-10-09T08:32:42;27.23;;;21.47;;
9496;SDS011;4786;51.270;4.456;2023-10-09T08:35:31;30.70;;;23.37;;
9496;SDS011;4786;51.270;4.456;2023-10-09T08:38:01;24.42;;;20.10;;
9496;SDS011;4786;51.270;4.456;2023-10-09T08:40:38;21.75;;;19.20;;
9496;SDS011;4786;51.270;4.456;2023-10-09T08:43:10;38.83;;;24.88;;
9496;SDS011;4786;51.270;4.456;2023-10-09T08:45:40;28.40;;;21.10;;
9496;SDS011;4786;51.270;4.456;2023-10-09T08:48:10;30.13;;;21.20;;
9496;SDS011;4786;51.270;4.456;2023-10-09T08:50:51;30.15;;;22.67;;
9496;SDS011;4786;51.270;4.456;2023-10-09T08:53:20;27.02;;;22.42;;
9496;SDS011;4786;51.270;4.456;2023-10-09T08:55:47;30.25;;;21.80;;
9496;SDS011;4786;51.270;4.456;2023-10-09T08:58:17;24.05;;;19.50;;
9496;SDS011;4786;51.270;4.456;2023-10-09T09:00:50;26.65;;;21.38;;
9496;SDS011;4786;51.270;4.456;2023-10-09T09:03:17;24.60;;;18.75;;
9496;SDS011;4786;51.270;4.456;2023-10-09T09:05:45;24.42;;;20.55;;
9496;SDS011;4786;51.270;4.456;2023-10-09T09:08:23;27.83;;;21.85;;
9496;SDS011;4786;51.270;4.456;2023-10-09T09:10:51;23.83;;;20.58;;
9496;SDS011;4786;51.270;4.456;2023-10-09T09:13:24;26.35;;;21.23;;
9496;SDS011;4786;51.270;4.456;2023-10-09T09:15:50;29.15;;;21.15;;
9496;SDS011;4786;51.270;4.456;2023-10-09T09:18:21;25.95;;;21.13;;
9496;SDS011;4786;51.270;4.456;2023-10-09T09:20:47;27.48;;;21.80;;
9496;SDS011;4786;51.270;4.456;2023-10-09T09:23:16;30.77;;;22.17;;
9496;SDS011;4786;51.270;4.456;2023-10-09T09:25:48;24.98;;;19.00;;
9496;SDS011;4786;51.270;4.456;2023-10-09T09:28:23;27.30;;;20.80;;
9496;SDS011;4786;51.270;4.456;2023-10-09T09:30:52;31.00;;;22.27;;
9496;SDS011;4786;51.270;4.456;2023-10-09T09:33:20;31.83;;;21.75;;
9496;SDS011;4786;51.270;4.456;2023-10-09T09:35:59;27.27;;;20.88;;
9496;SDS011;4786;51.270;4.456;2023-10-09T09:38:30;26.40;;;19.95;;
9496;SDS011;4786;51.270;4.456;2023-10-09T09:41:15;24.90;;;18.15;;
9496;SDS011;4786;51.270;4.456;2023-10-09T09:43:53;24.13;;;18.55;;
9496;SDS011;4786;51.270;4.456;2023-10-09T09:46:31;25.60;;;18.88;;
9496;SDS011;4786;51.270;4.456;2023-10-09T09:49:01;27.60;;;19.63;;
9496;SDS011;4786;51.270;4.456;2023-10-09T09:51:32;26.75;;;19.52;;
9496;SDS011;4786;51.270;4.456;2023-10-09T09:53:58;28.33;;;19.92;;
9496;SDS011;4786;51.270;4.456;2023-10-09T09:56:25;19.17;;;16.80;;
9496;SDS011;4786;51.270;4.456;2023-10-09T09:58:52;25.08;;;17.60;;
9496;SDS011;4786;51.270;4.456;2023-10-09T10:01:18;18.05;;;16.08;;
9496;SDS011;4786;51.270;4.456;2023-10-09T10:04:01;21.63;;;16.90;;
9496;SDS011;4786;51.270;4.456;2023-10-09T10:06:37;24.17;;;18.00;;
9496;SDS011;4786;51.270;4.456;2023-10-09T10:09:06;24.10;;;17.92;;
9496;SDS011;4786;51.270;4.456;2023-10-09T10:11:46;21.42;;;17.63;;
9496;SDS011;4786;51.270;4.456;2023-10-09T10:14:17;24.27;;;17.45;;
9496;SDS011;4786;51.270;4.456;2023-10-09T10:16:59;21.85;;;18.17;;
9496;SDS011;4786;51.270;4.456;2023-10-09T10:22:42;22.83;;;16.38;;
9496;SDS011;4786;51.270;4.456;2023-10-09T10:31:03;20.73;;;16.05;;
9496;SDS011;4786;51.270;4.456;2023-10-09T10:36:22;21.65;;;18.48;;
9496;SDS011;4786;51.270;4.456;2023-10-09T10:39:06;21.17;;;16.80;;
9496;SDS011;4786;51.270;4.456;2023-10-09T10:41:36;25.63;;;17.80;;
9496;SDS011;4786;51.270;4.456;2023-10-09T10:44:16;20.10;;;15.43;;
9496;SDS011;4786;51.270;4.456;2023-10-09T10:47:10;21.38;;;16.38;;
9496;SDS011;4786;51.270;4.456;2023-10-09T10:50:01;17.38;;;13.93;;
9496;SDS011;4786;51.270;4.456;2023-10-09T10:55:39;14.35;;;12.27;;
9496;SDS011;4786;51.270;4.456;2023-10-09T10:58:21;19.20;;;13.60;;
9496;SDS011;4786;51.270;4.456;2023-10-09T11:00:53;18.88;;;13.30;;
9496;SDS011;4786;51.270;4.456;2023-10-09T11:03:23;18.58;;;13.85;;
9496;SDS011;4786;51.270;4.456;2023-10-09T11:06:23;17.65;;;13.10;;
9496;SDS011;4786;51.270;4.456;2023-10-09T11:09:00;15.35;;;12.65;;
9496;SDS011;4786;51.270;4.456;2023-10-09T11:11:34;17.65;;;11.85;;
9496;SDS011;4786;51.270;4.456;2023-10-09T11:14:09;18.88;;;14.05;;
9496;SDS011;4786;51.270;4.456;2023-10-09T11:16:48;19.10;;;14.77;;
9496;SDS011;4786;51.270;4.456;2023-10-09T11:19:19;19.83;;;13.27;;
9496;SDS011;4786;51.270;4.456;2023-10-09T11:21:52;16.33;;;12.57;;
9496;SDS011;4786;51.270;4.456;2023-10-09T11:24:44;20.50;;;13.70;;
9496;SDS011;4786;51.270;4.456;2023-10-09T11:27:24;19.60;;;12.45;;
9496;SDS011;4786;51.270;4.456;2023-10-09T11:29:54;15.15;;;13.02;;
9496;SDS011;4786;51.270;4.456;2023-10-09T11:32:20;23.25;;;15.07;;
9496;SDS011;4786;51.270;4.456;2023-10-09T11:34:51;13.50;;;11.15;;
9496;SDS011;4786;51.270;4.456;2023-10-09T11:37:34;16.77;;;12.90;;
9496;SDS011;4786;51.270;4.456;2023-10-09T11:40:04;19.38;;;13.45;;
9496;SDS011;4786;51.270;4.456;2023-10-09T11:42:48;17.58;;;14.18;;
9496;SDS011;4786;51.270;4.456;2023-10-09T11:47:54;20.23;;;14.07;;
9496;SDS011;4786;51.270;4.456;2023-10-09T11:50:38;19.98;;;13.52;;
9496;SDS011;4786;51.270;4.456;2023-10-09T11:53:17;17.90;;;14.30;;
9496;SDS011;4786;51.270;4.456;2023-10-09T11:55:50;22.33;;;15.15;;
9496;SDS011;4786;51.270;4.456;2023-10-09T11:58:17;21.17;;;13.25;;
9496;SDS011;4786;51.270;4.456;2023-10-09T12:00:52;17.83;;;11.95;;
9496;SDS011;4786;51.270;4.456;2023-10-09T12:03:41;15.32;;;12.15;;
9496;SDS011;4786;51.270;4.456;2023-10-09T12:06:08;20.05;;;12.70;;
9496;SDS011;4786;51.270;4.456;2023-10-09T12:08:39;14.93;;;11.43;;
9496;SDS011;4786;51.270;4.456;2023-10-09T12:11:05;19.92;;;11.35;;
9496;SDS011;4786;51.270;4.456;2023-10-09T12:13:36;16.85;;;9.85;;
9496;SDS011;4786;51.270;4.456;2023-10-09T12:16:07;14.48;;;9.40;;
9496;SDS011;4786;51.270;4.456;2023-10-09T12:18:36;17.75;;;9.57;;
9496;SDS011;4786;51.270;4.456;2023-10-09T12:21:12;18.90;;;8.45;;
9496;SDS011;4786;51.270;4.456;2023-10-09T12:23:40;12.50;;;7.57;;
9496;SDS011;4786;51.270;4.456;2023-10-09T12:26:08;13.52;;;7.50;;
9496;SDS011;4786;51.270;4.456;2023-10-09T12:28:39;16.40;;;7.57;;
9496;SDS011;4786;51.270;4.456;2023-10-09T12:31:06;12.77;;;6.93;;
9496;SDS011;4786;51.270;4.456;2023-10-09T12:33:31;14.05;;;7.30;;
9496;SDS011;4786;51.270;4.456;2023-10-09T12:35:58;12.93;;;6.80;;
9496;SDS011;4786;51.270;4.456;2023-10-09T12:38:26;10.13;;;6.60;;
9496;SDS011;4786;51.270;4.456;2023-10-09T12:41:02;14.60;;;8.35;;
9496;SDS011;4786;51.270;4.456;2023-10-09T12:43:48;15.38;;;8.90;;
9496;SDS011;4786;51.270;4.456;2023-10-09T12:46:14;15.25;;;9.68;;
9496;SDS011;4786;51.270;4.456;2023-10-09T12:48:43;14.88;;;9.20;;
9496;SDS011;4786;51.270;4.456;2023-10-09T12:51:13;22.42;;;11.15;;
9496;SDS011;4786;51.270;4.456;2023-10-09T12:53:42;14.40;;;9.50;;
9496;SDS011;4786;51.270;4.456;2023-10-09T12:56:09;13.82;;;9.07;;
9496;SDS011;4786;51.270;4.456;2023-10-09T12:58:37;15.13;;;9.45;;
9496;SDS011;4786;51.270;4.456;2023-10-09T13:01:17;16.45;;;9.65;;
9496;SDS011;4786;51.270;4.456;2023-10-09T13:03:44;17.00;;;9.50;;
9496;SDS011;4786;51.270;4.456;2023-10-09T13:06:14;16.17;;;9.57;;
9496;SDS011;4786;51.270;4.456;2023-10-09T13:08:40;14.05;;;8.55;;
9496;SDS011;4786;51.270;4.456;2023-10-09T13:11:10;10.23;;;8.27;;
9496;SDS011;4786;51.270;4.456;2023-10-09T13:13:39;12.40;;;8.32;;
9496;SDS011;4786;51.270;4.456;2023-10-09T13:16:18;12.02;;;7.38;;
9496;SDS011;4786;51.270;4.456;2023-10-09T13:18:49;14.73;;;7.80;;
9496;SDS011;4786;51.270;4.456;2023-10-09T13:21:16;14.98;;;7.47;;
9496;SDS011;4786;51.270;4.456;2023-10-09T13:23:43;13.70;;;7.28;;
9496;SDS011;4786;51.270;4.456;2023-10-09T13:26:12;9.30;;;6.35;;
9496;SDS011;4786;51.270;4.456;2023-10-09T13:28:49;14.35;;;6.53;;
9496;SDS011;4786;51.270;4.456;2023-10-09T13:31:18;9.45;;;6.10;;
9496;SDS011;4786;51.270;4.456;2023-10-09T13:33:46;9.95;;;6.00;;
9496;SDS011;4786;51.270;4.456;2023-10-09T13:36:13;7.57;;;5.47;;
9496;SDS011;4786;51.270;4.456;2023-10-09T13:38:55;8.63;;;6.25;;
9496;SDS011;4786;51.270;4.456;2023-10-09T13:41:25;8.02;;;6.03;;
9496;SDS011;4786;51.270;4.456;2023-10-09T13:43:56;10.15;;;6.63;;
9496;SDS011;4786;51.270;4.456;2023-10-09T13:46:23;9.45;;;5.70;;
9496;SDS011;4786;51.270;4.456;2023-10-09T13:48:49;12.18;;;6.30;;
9496;SDS011;4786;51.270;4.456;2023-10-09T13:51:17;8.68;;;5.93;;
9496;SDS011;4786;51.270;4.456;2023-10-09T13:53:44;12.57;;;5.97;;
9496;SDS011;4786;51.270;4.456;2023-10-09T13:56:14;9.52;;;5.90;;
9496;SDS011;4786;51.270;4.456;2023-10-09T13:58:44;8.68;;;5.72;;
9496;SDS011;4786;51.270;4.456;2023-10-09T14:01:11;9.77;;;6.28;;
9496;SDS011;4786;51.270;4.456;2023-10-09T14:03:45;10.13;;;5.78;;
9496;SDS011;4786;51.270;4.456;2023-10-09T14:06:15;9.25;;;5.60;;
9496;SDS011;4786;51.270;4.456;2023-10-09T14:08:45;12.40;;;6.55;;
9496;SDS011;4786;51.270;4.456;2023-10-09T14:11:10;9.50;;;6.30;;
9496;SDS011;4786;51.270;4.456;2023-10-09T14:13:41;8.73;;;5.30;;
9496;SDS011;4786;51.270;4.456;2023-10-09T14:16:07;11.15;;;6.40;;
9496;SDS011;4786;51.270;4.456;2023-10-09T14:18:49;9.75;;;5.35;;
9496;SDS011;4786;51.270;4.456;2023-10-09T14:21:26;8.90;;;5.18;;
9496;SDS011;4786;51.270;4.456;2023-10-09T14:23:58;7.13;;;5.53;;
9496;SDS011;4786;51.270;4.456;2023-10-09T14:26:27;10.95;;;5.88;;
9496;SDS011;4786;51.270;4.456;2023-10-09T14:28:55;6.38;;;5.22;;
9496;SDS011;4786;51.270;4.456;2023-10-09T14:31:24;8.68;;;5.60;;
9496;SDS011;4786;51.270;4.456;2023-10-09T14:33:56;7.57;;;5.85;;
9496;SDS011;4786;51.270;4.456;2023-10-09T14:36:22;10.00;;;5.85;;
9496;SDS011;4786;51.270;4.456;2023-10-09T14:38:49;10.57;;;6.50;;
9496;SDS011;4786;51.270;4.456;2023-10-09T14:41:20;9.63;;;6.00;;
9496;SDS011;4786;51.270;4.456;2023-10-09T14:43:50;9.10;;;5.97;;
9496;SDS011;4786;51.270;4.456;2023-10-09T14:46:17;10.95;;;6.63;;
9496;SDS011;4786;51.270;4.456;2023-10-09T14:48:54;11.43;;;5.97;;
9496;SDS011;4786;51.270;4.456;2023-10-09T14:51:20;8.23;;;5.40;;
9496;SDS011;4786;51.270;4.456;2023-10-09T14:54:06;10.23;;;6.20;;
9496;SDS011;4786;51.270;4.456;2023-10-09T14:56:33;10.93;;;6.07;;
9496;SDS011;4786;51.270;4.456;2023-10-09T14:59:01;10.45;;;6.00;;
9496;SDS011;4786;51.270;4.456;2023-10-09T15:01:28;10.90;;;5.95;;
9496;SDS011;4786;51.270;4.456;2023-10-09T15:03:58;8.95;;;6.13;;
9496;SDS011;4786;51.270;4.456;2023-10-09T15:06:28;7.35;;;5.28;;
9496;SDS011;4786;51.270;4.456;2023-10-09T15:08:58;8.30;;;5.28;;
9496;SDS011;4786;51.270;4.456;2023-10-09T15:11:33;9.63;;;5.65;;
9496;SDS011;4786;51.270;4.456;2023-10-09T15:13:59;10.77;;;5.63;;
9496;SDS011;4786;51.270;4.456;2023-10-09T15:16:25;8.40;;;5.70;;
9496;SDS011;4786;51.270;4.456;2023-10-09T15:18:56;7.28;;;5.00;;
9496;SDS011;4786;51.270;4.456;2023-10-09T15:21:27;7.47;;;4.97;;
9496;SDS011;4786;51.270;4.456;2023-10-09T15:23:57;9.88;;;5.22;;
9496;SDS011;4786;51.270;4.456;2023-10-09T15:26:23;8.25;;;5.35;;
9496;SDS011;4786;51.270;4.456;2023-10-09T15:28:50;9.40;;;5.30;;
9496;SDS011;4786;51.270;4.456;2023-10-09T15:31:17;11.82;;;5.30;;
9496;SDS011;4786;51.270;4.456;2023-10-09T15:33:44;9.88;;;5.60;;
9496;SDS011;4786;51.270;4.456;2023-10-09T15:36:13;7.53;;;4.82;;
9496;SDS011;4786;51.270;4.456;2023-10-09T15:38:45;11.60;;;5.10;;
9496;SDS011;4786;51.270;4.456;2023-10-09T15:41:15;8.05;;;5.72;;
9496;SDS011;4786;51.270;4.456;2023-10-09T15:43:41;6.25;;;4.65;;
9496;SDS011;4786;51.270;4.456;2023-10-09T15:46:12;7.88;;;5.28;;
9496;SDS011;4786;51.270;4.456;2023-10-09T15:48:42;7.00;;;5.35;;
9496;SDS011;4786;51.270;4.456;2023-10-09T15:51:11;9.40;;;5.47;;
9496;SDS011;4786;51.270;4.456;2023-10-09T15:53:40;12.88;;;5.88;;
9496;SDS011;4786;51.270;4.456;2023-10-09T15:56:08;7.57;;;5.00;;